sensor_id;sensor_type;location;lat;lon;timestamp;temperature;humidity
70734;DHT22;58320;48.804;9.252;2023-01-29T00:01:49;0.50;75.20
70734;DHT22;58320;48.804;9.252;2023-01-29T00:04:15;0.50;75.30
70734;DHT22;58320;48.804;9.252;2023-01-29T00:06:41;0.50;75.40
70734;DHT22;58320;48.804;9.252;2023-01-29T00:09:08;0.50;75.20
70734;DHT22;58320;48.804;9.252;2023-01-29T00:11:35;0.40;75.50
70734;DHT22;58320;48.804;9.252;2023-01-29T00:14:00;0.40;75.80
70734;DHT22;58320;48.804;9.252;2023-01-29T00:16:26;0.50;75.60
70734;DHT22;58320;48.804;9.252;2023-01-29T00:18:52;0.50;75.40
70734;DHT22;58320;48.804;9.252;2023-01-29T00:21:19;0.50;75.60
70734;DHT22;58320;48.804;9.252;2023-01-29T00:23:46;0.50;75.50
70734;DHT22;58320;48.804;9.252;2023-01-29T00:26:13;0.50;75.30
70734;DHT22;58320;48.804;9.252;2023-01-29T00:28:39;0.50;75.20
70734;DHT22;58320;48.804;9.252;2023-01-29T00:31:18;0.50;75.10
70734;DHT22;58320;48.804;9.252;2023-01-29T00:33:48;0.50;74.80
70734;DHT22;58320;48.804;9.252;2023-01-29T00:36:16;0.50;74.90
70734;DHT22;58320;48.804;9.252;2023-01-29T00:38:43;0.50;75.00
70734;DHT22;58320;48.804;9.252;2023-01-29T00:41:11;0.50;75.00
70734;DHT22;58320;48.804;9.252;2023-01-29T00:43:58;0.50;75.10
70734;DHT22;58320;48.804;9.252;2023-01-29T00:46:43;0.50;75.00
70734;DHT22;58320;48.804;9.252;2023-01-29T00:49:09;0.50;74.80
70734;DHT22;58320;48.804;9.252;2023-01-29T00:51:37;0.50;75.10
70734;DHT22;58320;48.804;9.252;2023-01-29T00:54:04;0.50;75.10
70734;DHT22;58320;48.804;9.252;2023-01-29T00:56:32;0.50;74.90
70734;DHT22;58320;48.804;9.252;2023-01-29T00:58:59;0.50;75.30
70734;DHT22;58320;48.804;9.252;2023-01-29T01:01:24;0.60;75.30
70734;DHT22;58320;48.804;9.252;2023-01-29T01:04:10;0.60;75.10
70734;DHT22;58320;48.804;9.252;2023-01-29T01:06:37;0.60;74.90
70734;DHT22;58320;48.804;9.252;2023-01-29T01:09:05;0.60;75.10
70734;DHT22;58320;48.804;9.252;2023-01-29T01:11:49;0.60;75.20
70734;DHT22;58320;48.804;9.252;2023-01-29T01:14:16;0.60;75.50
70734;DHT22;58320;48.804;9.252;2023-01-29T01:16:45;0.60;75.30
70734;DHT22;58320;48.804;9.252;2023-01-29T01:19:12;0.60;74.70
70734;DHT22;58320;48.804;9.252;2023-01-29T01:21:38;0.60;74.90
70734;DHT22;58320;48.804;9.252;2023-01-29T01:24:05;0.60;75.20
70734;DHT22;58320;48.804;9.252;2023-01-29T01:26:31;0.60;75.00
70734;DHT22;58320;48.804;9.252;2023-01-29T01:28:57;0.60;74.90
70734;DHT22;58320;48.804;9.252;2023-01-29T01:31:24;0.60;74.80
70734;DHT22;58320;48.804;9.252;2023-01-29T01:33:49;0.60;74.70
70734;DHT22;58320;48.804;9.252;2023-01-29T01:36:16;0.60;74.70
70734;DHT22;58320;48.804;9.252;2023-01-29T01:38:42;0.60;74.60
70734;DHT22;58320;48.804;9.252;2023-01-29T01:41:12;0.50;75.00
70734;DHT22;58320;48.804;9.252;2023-01-29T01:44:05;0.50;75.10
70734;DHT22;58320;48.804;9.252;2023-01-29T01:46:34;0.50;75.30
70734;DHT22;58320;48.804;9.252;2023-01-29T01:49:13;0.50;74.90
70734;DHT22;58320;48.804;9.252;2023-01-29T01:51:44;0.50;74.70
70734;DHT22;58320;48.804;9.252;2023-01-29T01:54:19;0.40;74.30
70734;DHT22;58320;48.804;9.252;2023-01-29T01:56:52;0.40;74.70
70734;DHT22;58320;48.804;9.252;2023-01-29T01:59:30;0.40;74.40
70734;DHT22;58320;48.804;9.252;2023-01-29T02:01:57;0.30;74.60
70734;DHT22;58320;48.804;9.252;2023-01-29T02:04:24;0.30;74.70
70734;DHT22;58320;48.804;9.252;2023-01-29T02:07:12;0.30;74.20
70734;DHT22;58320;48.804;9.252;2023-01-29T02:10:13;0.20;74.50
70734;DHT22;58320;48.804;9.252;2023-01-29T02:12:41;0.20;74.50
70734;DHT22;58320;48.804;9.252;2023-01-29T02:15:09;0.20;74.90
70734;DHT22;58320;48.804;9.252;2023-01-29T02:17:35;0.20;75.10
70734;DHT22;58320;48.804;9.252;2023-01-29T02:28:34;0.10;74.50
70734;DHT22;58320;48.804;9.252;2023-01-29T02:31:23;0.10;74.80
70734;DHT22;58320;48.804;9.252;2023-01-29T02:34:05;0.10;74.50
70734;DHT22;58320;48.804;9.252;2023-01-29T02:37:08;0.10;74.40
70734;DHT22;58320;48.804;9.252;2023-01-29T02:42:26;0.10;74.80
70734;DHT22;58320;48.804;9.252;2023-01-29T02:48:22;0.20;75.10
70734;DHT22;58320;48.804;9.252;2023-01-29T02:51:17;0.20;75.20
70734;DHT22;58320;48.804;9.252;2023-01-29T02:56:53;0.20;75.20
70734;DHT22;58320;48.804;9.252;2023-01-29T02:59:28;0.20;75.10
70734;DHT22;58320;48.804;9.252;2023-01-29T03:02:06;0.20;75.00
70734;DHT22;58320;48.804;9.252;2023-01-29T03:04:40;0.20;74.80
70734;DHT22;58320;48.804;9.252;2023-01-29T03:07:21;0.20;74.60
70734;DHT22;58320;48.804;9.252;2023-01-29T03:10:20;0.20;74.40
70734;DHT22;58320;48.804;9.252;2023-01-29T03:12:53;0.20;74.50
70734;DHT22;58320;48.804;9.252;2023-01-29T03:15:54;0.20;74.60
70734;DHT22;58320;48.804;9.252;2023-01-29T03:18:30;0.20;74.70
70734;DHT22;58320;48.804;9.252;2023-01-29T03:21:05;0.20;74.80
70734;DHT22;58320;48.804;9.252;2023-01-29T03:23:54;0.30;74.90
70734;DHT22;58320;48.804;9.252;2023-01-29T03:26:42;0.30;74.80
70734;DHT22;58320;48.804;9.252;2023-01-29T03:29:29;0.30;74.80
70734;DHT22;58320;48.804;9.252;2023-01-29T03:32:16;0.30;74.40
70734;DHT22;58320;48.804;9.252;2023-01-29T03:34:48;0.20;74.60
70734;DHT22;58320;48.804;9.252;2023-01-29T03:40:00;0.20;74.70
70734;DHT22;58320;48.804;9.252;2023-01-29T03:45:35;0.20;74.60
70734;DHT22;58320;48.804;9.252;2023-01-29T03:51:29;0.20;74.10
70734;DHT22;58320;48.804;9.252;2023-01-29T03:54:12;0.20;74.30
70734;DHT22;58320;48.804;9.252;2023-01-29T04:02:12;0.20;74.30
70734;DHT22;58320;48.804;9.252;2023-01-29T04:04:45;0.20;74.20
70734;DHT22;58320;48.804;9.252;2023-01-29T04:07:21;0.10;74.00
70734;DHT22;58320;48.804;9.252;2023-01-29T04:10:05;0.10;74.20
70734;DHT22;58320;48.804;9.252;2023-01-29T04:12:42;0.20;74.40
70734;DHT22;58320;48.804;9.252;2023-01-29T04:15:13;0.20;74.30
70734;DHT22;58320;48.804;9.252;2023-01-29T04:17:43;0.20;74.50
70734;DHT22;58320;48.804;9.252;2023-01-29T04:20:13;0.20;74.40
70734;DHT22;58320;48.804;9.252;2023-01-29T04:22:39;0.20;74.40
70734;DHT22;58320;48.804;9.252;2023-01-29T04:25:16;0.10;74.40
70734;DHT22;58320;48.804;9.252;2023-01-29T04:28:09;0.00;74.80
70734;DHT22;58320;48.804;9.252;2023-01-29T04:50:20;0.10;75.80
70734;DHT22;58320;48.804;9.252;2023-01-29T04:53:03;0.10;75.20
70734;DHT22;58320;48.804;9.252;2023-01-29T04:55:46;0.10;75.20
70734;DHT22;58320;48.804;9.252;2023-01-29T04:58:34;0.10;75.20
70734;DHT22;58320;48.804;9.252;2023-01-29T05:01:21;0.00;75.20
70734;DHT22;58320;48.804;9.252;2023-01-29T05:03:57;0.00;75.40
70734;DHT22;58320;48.804;9.252;2023-01-29T05:06:25;0.00;75.50
70734;DHT22;58320;48.804;9.252;2023-01-29T05:08:52;0.00;75.10
70734;DHT22;58320;48.804;9.252;2023-01-29T05:11:20;0.00;74.50
70734;DHT22;58320;48.804;9.252;2023-01-29T05:13:47;0.00;74.20
70734;DHT22;58320;48.804;9.252;2023-01-29T05:16:20;-0.10;74.40
70734;DHT22;58320;48.804;9.252;2023-01-29T05:18:49;-0.10;74.30
70734;DHT22;58320;48.804;9.252;2023-01-29T05:21:15;-0.10;73.80
70734;DHT22;58320;48.804;9.252;2023-01-29T05:23:41;-0.20;74.30
70734;DHT22;58320;48.804;9.252;2023-01-29T05:26:18;-0.20;74.30
70734;DHT22;58320;48.804;9.252;2023-01-29T05:29:04;-0.20;74.50
70734;DHT22;58320;48.804;9.252;2023-01-29T05:31:29;-0.20;74.70
70734;DHT22;58320;48.804;9.252;2023-01-29T05:33:55;-0.10;74.90
70734;DHT22;58320;48.804;9.252;2023-01-29T05:36:21;-0.10;75.10
70734;DHT22;58320;48.804;9.252;2023-01-29T05:38:47;-0.10;75.00
70734;DHT22;58320;48.804;9.252;2023-01-29T05:41:13;-0.10;74.60
70734;DHT22;58320;48.804;9.252;2023-01-29T05:43:38;-0.10;74.90
70734;DHT22;58320;48.804;9.252;2023-01-29T05:46:04;-0.10;75.00
70734;DHT22;58320;48.804;9.252;2023-01-29T05:48:30;-0.10;75.20
70734;DHT22;58320;48.804;9.252;2023-01-29T05:51:00;-0.10;75.00
70734;DHT22;58320;48.804;9.252;2023-01-29T05:53:31;-0.10;75.40
70734;DHT22;58320;48.804;9.252;2023-01-29T05:56:00;-0.20;75.50
70734;DHT22;58320;48.804;9.252;2023-01-29T05:58:26;-0.20;76.00
70734;DHT22;58320;48.804;9.252;2023-01-29T06:00:51;-0.20;75.70
70734;DHT22;58320;48.804;9.252;2023-01-29T06:03:17;-0.10;74.80
70734;DHT22;58320;48.804;9.252;2023-01-29T06:05:43;-0.20;74.90
70734;DHT22;58320;48.804;9.252;2023-01-29T06:08:09;-0.20;75.10
70734;DHT22;58320;48.804;9.252;2023-01-29T06:10:35;-0.20;75.30
70734;DHT22;58320;48.804;9.252;2023-01-29T06:13:00;-0.20;75.50
70734;DHT22;58320;48.804;9.252;2023-01-29T06:15:26;-0.20;75.90
70734;DHT22;58320;48.804;9.252;2023-01-29T06:17:53;-0.20;75.50
70734;DHT22;58320;48.804;9.252;2023-01-29T06:20:19;-0.20;75.20
70734;DHT22;58320;48.804;9.252;2023-01-29T06:22:45;-0.20;75.70
70734;DHT22;58320;48.804;9.252;2023-01-29T06:25:10;-0.30;75.50
70734;DHT22;58320;48.804;9.252;2023-01-29T06:27:36;-0.30;75.80
70734;DHT22;58320;48.804;9.252;2023-01-29T06:30:05;-0.30;75.70
70734;DHT22;58320;48.804;9.252;2023-01-29T06:32:32;-0.30;75.80
70734;DHT22;58320;48.804;9.252;2023-01-29T06:34:57;-0.40;75.70
70734;DHT22;58320;48.804;9.252;2023-01-29T06:37:23;-0.40;76.20
70734;DHT22;58320;48.804;9.252;2023-01-29T06:39:49;-0.40;76.20
70734;DHT22;58320;48.804;9.252;2023-01-29T06:42:15;-0.30;76.20
70734;DHT22;58320;48.804;9.252;2023-01-29T06:44:40;-0.20;76.10
70734;DHT22;58320;48.804;9.252;2023-01-29T06:47:06;-0.20;76.00
70734;DHT22;58320;48.804;9.252;2023-01-29T06:49:32;-0.20;76.10
70734;DHT22;58320;48.804;9.252;2023-01-29T06:51:57;-0.20;75.80
70734;DHT22;58320;48.804;9.252;2023-01-29T06:54:23;-0.20;76.00
70734;DHT22;58320;48.804;9.252;2023-01-29T06:56:50;-0.20;76.10
70734;DHT22;58320;48.804;9.252;2023-01-29T06:59:16;-0.20;75.70
70734;DHT22;58320;48.804;9.252;2023-01-29T07:01:42;-0.20;75.40
70734;DHT22;58320;48.804;9.252;2023-01-29T07:04:11;-0.10;75.30
70734;DHT22;58320;48.804;9.252;2023-01-29T07:06:37;-0.10;75.50
70734;DHT22;58320;48.804;9.252;2023-01-29T07:09:03;-0.10;74.60
70734;DHT22;58320;48.804;9.252;2023-01-29T07:11:29;-0.10;74.00
70734;DHT22;58320;48.804;9.252;2023-01-29T07:13:55;-0.10;74.40
70734;DHT22;58320;48.804;9.252;2023-01-29T07:16:21;-0.10;74.20
70734;DHT22;58320;48.804;9.252;2023-01-29T07:18:47;-0.10;74.20
70734;DHT22;58320;48.804;9.252;2023-01-29T07:21:13;-0.10;74.00
70734;DHT22;58320;48.804;9.252;2023-01-29T07:23:39;-0.10;73.70
70734;DHT22;58320;48.804;9.252;2023-01-29T07:26:05;-0.10;73.70
70734;DHT22;58320;48.804;9.252;2023-01-29T07:28:35;-0.10;73.90
70734;DHT22;58320;48.804;9.252;2023-01-29T07:31:04;0.00;74.00
70734;DHT22;58320;48.804;9.252;2023-01-29T07:33:31;0.00;74.10
70734;DHT22;58320;48.804;9.252;2023-01-29T07:35:57;0.10;74.10
70734;DHT22;58320;48.804;9.252;2023-01-29T07:38:23;0.10;73.80
70734;DHT22;58320;48.804;9.252;2023-01-29T07:40:50;0.20;74.00
70734;DHT22;58320;48.804;9.252;2023-01-29T07:43:16;0.20;73.70
70734;DHT22;58320;48.804;9.252;2023-01-29T07:45:42;0.30;73.50
70734;DHT22;58320;48.804;9.252;2023-01-29T07:48:11;0.30;73.00
70734;DHT22;58320;48.804;9.252;2023-01-29T07:50:38;0.20;73.10
70734;DHT22;58320;48.804;9.252;2023-01-29T07:53:04;0.30;72.90
70734;DHT22;58320;48.804;9.252;2023-01-29T07:55:31;0.30;72.90
70734;DHT22;58320;48.804;9.252;2023-01-29T07:57:59;0.30;72.90
70734;DHT22;58320;48.804;9.252;2023-01-29T08:00:26;0.20;73.00
70734;DHT22;58320;48.804;9.252;2023-01-29T08:03:00;0.30;73.20
70734;DHT22;58320;48.804;9.252;2023-01-29T08:05:30;0.30;73.00
70734;DHT22;58320;48.804;9.252;2023-01-29T08:07:56;0.30;72.90
70734;DHT22;58320;48.804;9.252;2023-01-29T08:10:22;0.40;72.90
70734;DHT22;58320;48.804;9.252;2023-01-29T08:12:56;0.40;72.40
70734;DHT22;58320;48.804;9.252;2023-01-29T08:15:23;0.50;72.00
70734;DHT22;58320;48.804;9.252;2023-01-29T08:17:49;0.50;72.10
70734;DHT22;58320;48.804;9.252;2023-01-29T08:20:15;0.70;72.00
70734;DHT22;58320;48.804;9.252;2023-01-29T08:22:41;0.70;71.50
70734;DHT22;58320;48.804;9.252;2023-01-29T08:25:07;0.70;71.60
70734;DHT22;58320;48.804;9.252;2023-01-29T08:27:33;0.80;71.40
70734;DHT22;58320;48.804;9.252;2023-01-29T08:29:59;0.80;71.30
70734;DHT22;58320;48.804;9.252;2023-01-29T08:32:25;0.80;71.90
70734;DHT22;58320;48.804;9.252;2023-01-29T08:34:50;0.80;72.30
70734;DHT22;58320;48.804;9.252;2023-01-29T08:37:16;0.90;71.50
70734;DHT22;58320;48.804;9.252;2023-01-29T08:39:42;0.90;70.90
70734;DHT22;58320;48.804;9.252;2023-01-29T08:42:08;0.90;71.00
70734;DHT22;58320;48.804;9.252;2023-01-29T08:44:34;0.90;71.20
70734;DHT22;58320;48.804;9.252;2023-01-29T08:46:59;0.90;70.20
70734;DHT22;58320;48.804;9.252;2023-01-29T08:49:25;0.90;70.00
70734;DHT22;58320;48.804;9.252;2023-01-29T08:51:51;0.90;70.00
70734;DHT22;58320;48.804;9.252;2023-01-29T08:54:18;1.00;70.20
70734;DHT22;58320;48.804;9.252;2023-01-29T08:56:43;1.00;69.60
70734;DHT22;58320;48.804;9.252;2023-01-29T08:59:10;0.90;68.80
70734;DHT22;58320;48.804;9.252;2023-01-29T09:01:35;0.80;69.50
70734;DHT22;58320;48.804;9.252;2023-01-29T09:04:01;0.90;69.90
70734;DHT22;58320;48.804;9.252;2023-01-29T09:06:27;0.90;70.00
70734;DHT22;58320;48.804;9.252;2023-01-29T09:08:53;1.00;69.80
70734;DHT22;58320;48.804;9.252;2023-01-29T09:11:18;1.10;69.50
70734;DHT22;58320;48.804;9.252;2023-01-29T09:13:44;1.20;69.30
70734;DHT22;58320;48.804;9.252;2023-01-29T09:16:10;1.30;69.00
70734;DHT22;58320;48.804;9.252;2023-01-29T09:18:36;1.30;69.00
70734;DHT22;58320;48.804;9.252;2023-01-29T09:21:02;1.40;69.20
70734;DHT22;58320;48.804;9.252;2023-01-29T09:23:28;1.60;68.90
70734;DHT22;58320;48.804;9.252;2023-01-29T09:25:55;1.70;68.40
70734;DHT22;58320;48.804;9.252;2023-01-29T09:28:22;1.80;67.50
70734;DHT22;58320;48.804;9.252;2023-01-29T09:30:47;1.80;68.00
70734;DHT22;58320;48.804;9.252;2023-01-29T09:33:13;1.90;67.90
70734;DHT22;58320;48.804;9.252;2023-01-29T09:35:40;1.90;67.00
70734;DHT22;58320;48.804;9.252;2023-01-29T09:38:07;1.90;67.40
70734;DHT22;58320;48.804;9.252;2023-01-29T09:41:19;1.90;67.10
70734;DHT22;58320;48.804;9.252;2023-01-29T09:44:03;1.90;67.30
70734;DHT22;58320;48.804;9.252;2023-01-29T09:46:38;1.90;67.50
70734;DHT22;58320;48.804;9.252;2023-01-29T09:49:21;2.00;67.50
70734;DHT22;58320;48.804;9.252;2023-01-29T09:51:54;2.20;66.70
70734;DHT22;58320;48.804;9.252;2023-01-29T09:54:28;2.30;65.30
70734;DHT22;58320;48.804;9.252;2023-01-29T09:56:57;2.20;65.20
70734;DHT22;58320;48.804;9.252;2023-01-29T09:59:25;2.20;65.80
70734;DHT22;58320;48.804;9.252;2023-01-29T10:02:27;2.00;66.00
70734;DHT22;58320;48.804;9.252;2023-01-29T10:05:13;1.70;65.30
70734;DHT22;58320;48.804;9.252;2023-01-29T10:10:46;2.30;63.40
70734;DHT22;58320;48.804;9.252;2023-01-29T10:13:36;2.50;62.50
70734;DHT22;58320;48.804;9.252;2023-01-29T10:16:16;2.70;61.70
70734;DHT22;58320;48.804;9.252;2023-01-29T10:19:02;3.20;60.50
70734;DHT22;58320;48.804;9.252;2023-01-29T10:24:35;3.00;60.50
70734;DHT22;58320;48.804;9.252;2023-01-29T10:27:12;3.30;59.20
70734;DHT22;58320;48.804;9.252;2023-01-29T10:29:41;3.40;59.30
70734;DHT22;58320;48.804;9.252;2023-01-29T10:32:14;3.20;58.60
70734;DHT22;58320;48.804;9.252;2023-01-29T10:37:20;3.10;60.00
70734;DHT22;58320;48.804;9.252;2023-01-29T10:39:48;3.10;60.30
70734;DHT22;58320;48.804;9.252;2023-01-29T10:42:23;3.10;59.70
70734;DHT22;58320;48.804;9.252;2023-01-29T10:50:22;2.90;61.20
70734;DHT22;58320;48.804;9.252;2023-01-29T10:59:00;2.90;60.90
70734;DHT22;58320;48.804;9.252;2023-01-29T11:01:30;2.90;61.60
70734;DHT22;58320;48.804;9.252;2023-01-29T11:03:59;3.10;61.00
70734;DHT22;58320;48.804;9.252;2023-01-29T11:06:30;3.20;59.90
70734;DHT22;58320;48.804;9.252;2023-01-29T11:12:08;3.40;59.40
70734;DHT22;58320;48.804;9.252;2023-01-29T11:17:24;3.50;58.70
70734;DHT22;58320;48.804;9.252;2023-01-29T11:19:52;3.40;59.30
70734;DHT22;58320;48.804;9.252;2023-01-29T11:22:27;3.40;58.50
70734;DHT22;58320;48.804;9.252;2023-01-29T11:25:16;3.30;59.30
70734;DHT22;58320;48.804;9.252;2023-01-29T11:27:49;3.30;59.70
70734;DHT22;58320;48.804;9.252;2023-01-29T11:30:27;3.40;60.20
70734;DHT22;58320;48.804;9.252;2023-01-29T11:33:02;3.60;59.20
70734;DHT22;58320;48.804;9.252;2023-01-29T11:35:32;3.70;58.40
70734;DHT22;58320;48.804;9.252;2023-01-29T11:40:41;4.00;58.50
70734;DHT22;58320;48.804;9.252;2023-01-29T11:43:30;4.10;58.10
70734;DHT22;58320;48.804;9.252;2023-01-29T11:46:05;4.30;57.20
70734;DHT22;58320;48.804;9.252;2023-01-29T11:48:47;4.30;56.30
70734;DHT22;58320;48.804;9.252;2023-01-29T11:51:28;3.80;57.40
70734;DHT22;58320;48.804;9.252;2023-01-29T11:53:57;3.70;59.40
70734;DHT22;58320;48.804;9.252;2023-01-29T11:56:37;3.90;58.30
70734;DHT22;58320;48.804;9.252;2023-01-29T11:59:42;4.10;58.40
70734;DHT22;58320;48.804;9.252;2023-01-29T12:02:35;4.30;57.30
70734;DHT22;58320;48.804;9.252;2023-01-29T12:05:16;4.10;57.10
70734;DHT22;58320;48.804;9.252;2023-01-29T12:07:48;3.90;58.10
70734;DHT22;58320;48.804;9.252;2023-01-29T12:10:36;3.30;58.90
70734;DHT22;58320;48.804;9.252;2023-01-29T12:15:39;3.80;58.60
70734;DHT22;58320;48.804;9.252;2023-01-29T12:18:19;4.10;57.20
70734;DHT22;58320;48.804;9.252;2023-01-29T12:21:00;3.70;58.00
70734;DHT22;58320;48.804;9.252;2023-01-29T12:23:49;3.50;58.40
70734;DHT22;58320;48.804;9.252;2023-01-29T12:26:38;4.20;57.60
70734;DHT22;58320;48.804;9.252;2023-01-29T12:29:35;4.70;55.50
70734;DHT22;58320;48.804;9.252;2023-01-29T12:32:13;5.40;54.30
70734;DHT22;58320;48.804;9.252;2023-01-29T12:34:45;6.10;51.70
70734;DHT22;58320;48.804;9.252;2023-01-29T12:40:17;6.90;50.10
70734;DHT22;58320;48.804;9.252;2023-01-29T12:42:54;7.30;48.60
70734;DHT22;58320;48.804;9.252;2023-01-29T12:45:25;7.60;47.80
70734;DHT22;58320;48.804;9.252;2023-01-29T12:48:03;7.40;47.80
70734;DHT22;58320;48.804;9.252;2023-01-29T12:50:32;7.00;48.60
70734;DHT22;58320;48.804;9.252;2023-01-29T12:53:27;6.70;49.70
70734;DHT22;58320;48.804;9.252;2023-01-29T12:56:07;6.30;50.70
70734;DHT22;58320;48.804;9.252;2023-01-29T12:58:42;5.60;51.50
70734;DHT22;58320;48.804;9.252;2023-01-29T13:01:14;5.90;51.80
70734;DHT22;58320;48.804;9.252;2023-01-29T13:04:08;6.10;50.60
70734;DHT22;58320;48.804;9.252;2023-01-29T13:06:53;6.70;50.50
70734;DHT22;58320;48.804;9.252;2023-01-29T13:09:27;7.50;48.10
70734;DHT22;58320;48.804;9.252;2023-01-29T13:12:10;8.00;46.50
70734;DHT22;58320;48.804;9.252;2023-01-29T13:14:47;8.00;46.00
70734;DHT22;58320;48.804;9.252;2023-01-29T13:17:27;8.10;46.10
70734;DHT22;58320;48.804;9.252;2023-01-29T13:19:59;8.40;46.10
70734;DHT22;58320;48.804;9.252;2023-01-29T13:22:33;8.60;46.00
70734;DHT22;58320;48.804;9.252;2023-01-29T13:25:02;8.40;45.80
70734;DHT22;58320;48.804;9.252;2023-01-29T13:27:30;8.00;47.00
70734;DHT22;58320;48.804;9.252;2023-01-29T13:29:58;7.60;47.30
70734;DHT22;58320;48.804;9.252;2023-01-29T13:32:27;7.20;48.70
70734;DHT22;58320;48.804;9.252;2023-01-29T13:35:10;6.90;48.70
70734;DHT22;58320;48.804;9.252;2023-01-29T13:37:55;6.70;49.80
70734;DHT22;58320;48.804;9.252;2023-01-29T13:40:29;6.60;51.00
70734;DHT22;58320;48.804;9.252;2023-01-29T13:42:56;6.80;50.30
70734;DHT22;58320;48.804;9.252;2023-01-29T13:45:26;6.90;50.30
70734;DHT22;58320;48.804;9.252;2023-01-29T13:48:08;6.90;50.10
70734;DHT22;58320;48.804;9.252;2023-01-29T13:50:38;6.90;49.40
70734;DHT22;58320;48.804;9.252;2023-01-29T13:53:07;6.60;50.70
70734;DHT22;58320;48.804;9.252;2023-01-29T13:55:38;6.40;51.00
70734;DHT22;58320;48.804;9.252;2023-01-29T13:58:16;6.30;51.90
70734;DHT22;58320;48.804;9.252;2023-01-29T14:00:58;6.30;51.10
70734;DHT22;58320;48.804;9.252;2023-01-29T14:05:57;5.60;52.70
70734;DHT22;58320;48.804;9.252;2023-01-29T14:08:36;5.10;54.10
70734;DHT22;58320;48.804;9.252;2023-01-29T14:13:43;4.70;55.60
70734;DHT22;58320;48.804;9.252;2023-01-29T14:18:44;4.10;57.30
70734;DHT22;58320;48.804;9.252;2023-01-29T14:21:22;4.10;57.90
70734;DHT22;58320;48.804;9.252;2023-01-29T14:23:57;4.10;57.90
70734;DHT22;58320;48.804;9.252;2023-01-29T14:34:29;3.80;58.70
70734;DHT22;58320;48.804;9.252;2023-01-29T14:39:47;3.60;59.70
70734;DHT22;58320;48.804;9.252;2023-01-29T14:42:24;3.60;60.00
70734;DHT22;58320;48.804;9.252;2023-01-29T14:44:55;3.60;59.80
70734;DHT22;58320;48.804;9.252;2023-01-29T14:52:41;3.90;59.60
70734;DHT22;58320;48.804;9.252;2023-01-29T14:58:34;4.00;59.00
70734;DHT22;58320;48.804;9.252;2023-01-29T15:01:05;4.00;58.60
70734;DHT22;58320;48.804;9.252;2023-01-29T15:03:46;4.10;58.70
70734;DHT22;58320;48.804;9.252;2023-01-29T15:06:36;4.30;57.80
70734;DHT22;58320;48.804;9.252;2023-01-29T15:20:40;4.20;58.30
70734;DHT22;58320;48.804;9.252;2023-01-29T15:23:30;4.10;58.60
70734;DHT22;58320;48.804;9.252;2023-01-29T15:28:59;4.00;58.90
70734;DHT22;58320;48.804;9.252;2023-01-29T15:31:26;4.00;59.10
70734;DHT22;58320;48.804;9.252;2023-01-29T15:33:54;3.80;59.30
70734;DHT22;58320;48.804;9.252;2023-01-29T15:36:26;3.90;59.80
70734;DHT22;58320;48.804;9.252;2023-01-29T15:41:37;4.10;59.20
70734;DHT22;58320;48.804;9.252;2023-01-29T15:44:15;4.30;58.70
70734;DHT22;58320;48.804;9.252;2023-01-29T15:46:57;4.30;58.50
70734;DHT22;58320;48.804;9.252;2023-01-29T15:49:33;4.40;58.30
70734;DHT22;58320;48.804;9.252;2023-01-29T15:52:04;4.30;58.30
70734;DHT22;58320;48.804;9.252;2023-01-29T15:54:33;4.10;58.70
70734;DHT22;58320;48.804;9.252;2023-01-29T15:57:00;3.90;58.90
70734;DHT22;58320;48.804;9.252;2023-01-29T15:59:32;3.70;59.80
70734;DHT22;58320;48.804;9.252;2023-01-29T16:04:58;3.40;60.40
70734;DHT22;58320;48.804;9.252;2023-01-29T16:07:25;3.20;61.10
70734;DHT22;58320;48.804;9.252;2023-01-29T16:09:51;3.00;61.80
70734;DHT22;58320;48.804;9.252;2023-01-29T16:12:18;2.70;62.80
70734;DHT22;58320;48.804;9.252;2023-01-29T16:14:44;2.40;63.90
70734;DHT22;58320;48.804;9.252;2023-01-29T16:17:32;2.20;64.90
70734;DHT22;58320;48.804;9.252;2023-01-29T16:20:04;1.90;65.90
70734;DHT22;58320;48.804;9.252;2023-01-29T16:22:34;1.70;66.70
70734;DHT22;58320;48.804;9.252;2023-01-29T16:25:04;1.60;67.40
70734;DHT22;58320;48.804;9.252;2023-01-29T16:27:33;1.40;68.00
70734;DHT22;58320;48.804;9.252;2023-01-29T16:29:59;1.30;69.00
70734;DHT22;58320;48.804;9.252;2023-01-29T16:32:27;1.20;69.60
70734;DHT22;58320;48.804;9.252;2023-01-29T16:34:58;1.10;69.80
70734;DHT22;58320;48.804;9.252;2023-01-29T16:37:30;1.00;70.50
70734;DHT22;58320;48.804;9.252;2023-01-29T16:39:57;0.90;71.20
70734;DHT22;58320;48.804;9.252;2023-01-29T16:42:30;0.80;71.60
70734;DHT22;58320;48.804;9.252;2023-01-29T16:45:02;0.70;72.10
70734;DHT22;58320;48.804;9.252;2023-01-29T16:47:35;0.60;72.40
70734;DHT22;58320;48.804;9.252;2023-01-29T16:50:30;0.60;72.90
70734;DHT22;58320;48.804;9.252;2023-01-29T16:53:17;0.50;73.60
70734;DHT22;58320;48.804;9.252;2023-01-29T16:55:47;0.40;73.90
70734;DHT22;58320;48.804;9.252;2023-01-29T16:58:20;0.40;74.30
70734;DHT22;58320;48.804;9.252;2023-01-29T17:00:51;0.30;74.50
70734;DHT22;58320;48.804;9.252;2023-01-29T17:03:19;0.20;74.90
70734;DHT22;58320;48.804;9.252;2023-01-29T17:05:45;0.20;75.10
70734;DHT22;58320;48.804;9.252;2023-01-29T17:11:13;0.10;75.80
70734;DHT22;58320;48.804;9.252;2023-01-29T17:13:49;0.10;76.00
70734;DHT22;58320;48.804;9.252;2023-01-29T17:16:27;0.00;76.20
70734;DHT22;58320;48.804;9.252;2023-01-29T17:18:55;-0.10;76.50
70734;DHT22;58320;48.804;9.252;2023-01-29T17:21:22;-0.10;76.90
70734;DHT22;58320;48.804;9.252;2023-01-29T17:23:48;-0.10;76.90
70734;DHT22;58320;48.804;9.252;2023-01-29T17:26:15;-0.10;77.10
70734;DHT22;58320;48.804;9.252;2023-01-29T17:28:41;-0.20;77.40
70734;DHT22;58320;48.804;9.252;2023-01-29T17:31:07;-0.20;77.60
70734;DHT22;58320;48.804;9.252;2023-01-29T17:33:40;-0.30;78.50
70734;DHT22;58320;48.804;9.252;2023-01-29T17:36:11;-0.30;78.70
70734;DHT22;58320;48.804;9.252;2023-01-29T17:38:39;-0.40;78.50
70734;DHT22;58320;48.804;9.252;2023-01-29T17:43:37;-0.50;79.00
70734;DHT22;58320;48.804;9.252;2023-01-29T17:46:03;-0.50;79.20
70734;DHT22;58320;48.804;9.252;2023-01-29T17:48:29;-0.50;79.10
70734;DHT22;58320;48.804;9.252;2023-01-29T17:51:02;-0.50;79.10
70734;DHT22;58320;48.804;9.252;2023-01-29T17:53:29;-0.60;79.40
70734;DHT22;58320;48.804;9.252;2023-01-29T17:55:54;-0.60;79.50
70734;DHT22;58320;48.804;9.252;2023-01-29T17:58:25;-0.60;79.40
70734;DHT22;58320;48.804;9.252;2023-01-29T18:00:52;-0.70;79.70
70734;DHT22;58320;48.804;9.252;2023-01-29T18:03:19;-0.70;80.10
70734;DHT22;58320;48.804;9.252;2023-01-29T18:05:46;-0.80;80.20
70734;DHT22;58320;48.804;9.252;2023-01-29T18:08:27;-0.80;80.80
70734;DHT22;58320;48.804;9.252;2023-01-29T18:10:56;-0.80;80.80
70734;DHT22;58320;48.804;9.252;2023-01-29T18:13:21;-0.80;80.80
70734;DHT22;58320;48.804;9.252;2023-01-29T18:15:47;-0.80;80.90
70734;DHT22;58320;48.804;9.252;2023-01-29T18:18:16;-0.90;81.60
70734;DHT22;58320;48.804;9.252;2023-01-29T18:20:43;-0.90;82.10
70734;DHT22;58320;48.804;9.252;2023-01-29T18:23:10;-0.90;81.60
70734;DHT22;58320;48.804;9.252;2023-01-29T18:25:37;-1.00;81.70
70734;DHT22;58320;48.804;9.252;2023-01-29T18:28:04;-1.00;81.90
70734;DHT22;58320;48.804;9.252;2023-01-29T18:30:30;-1.00;82.00
70734;DHT22;58320;48.804;9.252;2023-01-29T18:32:56;-1.00;82.20